Main page
METAR-TAF:

METAR-TAF

Airports :

Lewis University Airport

Romeoville, Illinois, United States

latitude: 41-36-30N, longitude: 088-05-39W, elevation: 672 ft

Current weather observation

The report was made 45 minutes ago, at 17:45 UTC
Wind 15 mph from the North/Northeast
Temperature 46°F
Humidity 61%
Pressure 30.29 in. Hg
Visibility: 10 miles
Few clouds at a height of 3000 ft

METAR: KLOT 241745Z 03013KT 10SM FEW030 08/01 A3029

Time: 13:30 (18:30 UTC)


TAF: missing

Weather observations and forecasts of more than 4000 airports (METAR and TAF reports).

The available stations are represented by yellow and red dots on the map.

Hover mouse over dot to see the name of the station.

Then click to see weather observations and forecasts.

To change the map : click on the green buttons with a black cross to zoom in, on the green button with a dash to zoom out, or on the green arrows for adjacent maps.


METAR-TAF: